sensor_id;sensor_type;location;lat;lon;timestamp;temperature;humidity
9446;DHT22;4761;49.490;10.908;2023-04-03T00:01:01;17.70;41.90
9446;DHT22;4761;49.490;10.908;2023-04-03T00:03:26;17.70;41.90
9446;DHT22;4761;49.490;10.908;2023-04-03T00:05:52;17.70;42.50
9446;DHT22;4761;49.490;10.908;2023-04-03T00:08:18;17.70;41.90
9446;DHT22;4761;49.490;10.908;2023-04-03T00:10:43;17.70;41.90
9446;DHT22;4761;49.490;10.908;2023-04-03T00:13:09;17.60;41.80
9446;DHT22;4761;49.490;10.908;2023-04-03T00:15:36;17.70;41.90
9446;DHT22;4761;49.490;10.908;2023-04-03T00:18:02;17.60;41.80
9446;DHT22;4761;49.490;10.908;2023-04-03T00:20:28;17.60;41.90
9446;DHT22;4761;49.490;10.908;2023-04-03T00:22:54;17.60;41.90
9446;DHT22;4761;49.490;10.908;2023-04-03T00:25:20;17.60;41.80
9446;DHT22;4761;49.490;10.908;2023-04-03T00:27:45;17.60;41.80
9446;DHT22;4761;49.490;10.908;2023-04-03T00:30:14;17.60;41.80
9446;DHT22;4761;49.490;10.908;2023-04-03T00:32:40;17.60;41.80
9446;DHT22;4761;49.490;10.908;2023-04-03T00:35:06;17.70;41.90
9446;DHT22;4761;49.490;10.908;2023-04-03T00:37:32;17.60;41.80
9446;DHT22;4761;49.490;10.908;2023-04-03T00:39:57;17.70;41.90
9446;DHT22;4761;49.490;10.908;2023-04-03T00:42:23;17.60;41.80
9446;DHT22;4761;49.490;10.908;2023-04-03T00:47:16;17.60;41.80
9446;DHT22;4761;49.490;10.908;2023-04-03T00:49:43;17.60;41.80
9446;DHT22;4761;49.490;10.908;2023-04-03T00:52:12;17.70;41.90
9446;DHT22;4761;49.490;10.908;2023-04-03T00:54:40;17.60;41.80
9446;DHT22;4761;49.490;10.908;2023-04-03T00:57:07;17.60;41.80
9446;DHT22;4761;49.490;10.908;2023-04-03T00:59:38;17.60;41.80
9446;DHT22;4761;49.490;10.908;2023-04-03T01:02:06;17.60;41.80
9446;DHT22;4761;49.490;10.908;2023-04-03T01:04:37;17.60;41.90
9446;DHT22;4761;49.490;10.908;2023-04-03T01:09:34;17.60;41.80
9446;DHT22;4761;49.490;10.908;2023-04-03T01:14:45;17.60;41.80
9446;DHT22;4761;49.490;10.908;2023-04-03T01:25:37;17.60;41.80
9446;DHT22;4761;49.490;10.908;2023-04-03T01:28:04;17.60;41.80
9446;DHT22;4761;49.490;10.908;2023-04-03T01:30:34;17.60;41.80
9446;DHT22;4761;49.490;10.908;2023-04-03T01:33:00;17.60;41.80
9446;DHT22;4761;49.490;10.908;2023-04-03T01:35:26;17.60;41.80
9446;DHT22;4761;49.490;10.908;2023-04-03T01:37:51;17.60;41.80
9446;DHT22;4761;49.490;10.908;2023-04-03T01:40:17;17.60;41.80
9446;DHT22;4761;49.490;10.908;2023-04-03T01:42:43;17.60;42.40
9446;DHT22;4761;49.490;10.908;2023-04-03T01:45:09;17.60;41.80
9446;DHT22;4761;49.490;10.908;2023-04-03T01:47:34;17.60;41.80
9446;DHT22;4761;49.490;10.908;2023-04-03T01:50:00;17.50;41.70
9446;DHT22;4761;49.490;10.908;2023-04-03T01:52:26;17.50;41.70
9446;DHT22;4761;49.490;10.908;2023-04-03T01:54:51;17.50;41.70
9446;DHT22;4761;49.490;10.908;2023-04-03T01:57:17;17.50;41.70
9446;DHT22;4761;49.490;10.908;2023-04-03T01:59:42;17.50;41.70
9446;DHT22;4761;49.490;10.908;2023-04-03T02:02:08;17.50;41.70
9446;DHT22;4761;49.490;10.908;2023-04-03T02:04:34;17.50;41.70
9446;DHT22;4761;49.490;10.908;2023-04-03T02:06:59;17.50;41.70
9446;DHT22;4761;49.490;10.908;2023-04-03T02:09:25;17.50;41.70
9446;DHT22;4761;49.490;10.908;2023-04-03T02:11:52;17.50;41.70
9446;DHT22;4761;49.490;10.908;2023-04-03T02:14:17;17.50;41.70
9446;DHT22;4761;49.490;10.908;2023-04-03T02:16:43;17.50;41.70
9446;DHT22;4761;49.490;10.908;2023-04-03T02:19:08;17.50;41.70
9446;DHT22;4761;49.490;10.908;2023-04-03T02:21:34;17.50;41.70
9446;DHT22;4761;49.490;10.908;2023-04-03T02:24:00;17.50;41.70
9446;DHT22;4761;49.490;10.908;2023-04-03T02:26:25;17.50;41.70
9446;DHT22;4761;49.490;10.908;2023-04-03T02:28:51;17.50;41.70
9446;DHT22;4761;49.490;10.908;2023-04-03T02:31:17;17.50;41.70
9446;DHT22;4761;49.490;10.908;2023-04-03T02:33:43;17.50;41.70
9446;DHT22;4761;49.490;10.908;2023-04-03T02:36:09;17.50;41.70
9446;DHT22;4761;49.490;10.908;2023-04-03T02:38:36;17.50;41.80
9446;DHT22;4761;49.490;10.908;2023-04-03T02:41:07;17.50;41.70
9446;DHT22;4761;49.490;10.908;2023-04-03T02:43:33;17.50;41.70
9446;DHT22;4761;49.490;10.908;2023-04-03T02:45:59;17.50;41.70
9446;DHT22;4761;49.490;10.908;2023-04-03T02:48:24;17.50;41.70
9446;DHT22;4761;49.490;10.908;2023-04-03T02:50:50;17.50;41.70
9446;DHT22;4761;49.490;10.908;2023-04-03T02:53:16;17.50;41.70
9446;DHT22;4761;49.490;10.908;2023-04-03T02:55:42;17.50;41.70
9446;DHT22;4761;49.490;10.908;2023-04-03T02:58:08;17.50;41.80
9446;DHT22;4761;49.490;10.908;2023-04-03T03:00:34;17.50;41.70
9446;DHT22;4761;49.490;10.908;2023-04-03T03:02:59;17.50;41.70
9446;DHT22;4761;49.490;10.908;2023-04-03T03:05:25;17.50;41.70
9446;DHT22;4761;49.490;10.908;2023-04-03T03:07:51;17.50;41.80
9446;DHT22;4761;49.490;10.908;2023-04-03T03:10:17;17.50;41.70
9446;DHT22;4761;49.490;10.908;2023-04-03T03:12:43;17.50;41.70
9446;DHT22;4761;49.490;10.908;2023-04-03T03:15:08;17.50;41.70
9446;DHT22;4761;49.490;10.908;2023-04-03T03:17:34;17.50;41.70
9446;DHT22;4761;49.490;10.908;2023-04-03T03:20:02;17.60;41.80
9446;DHT22;4761;49.490;10.908;2023-04-03T03:22:27;17.60;41.80
9446;DHT22;4761;49.490;10.908;2023-04-03T03:24:53;17.60;41.40
9446;DHT22;4761;49.490;10.908;2023-04-03T03:27:19;17.70;41.50
9446;DHT22;4761;49.490;10.908;2023-04-03T03:29:44;17.60;41.30
9446;DHT22;4761;49.490;10.908;2023-04-03T03:32:10;17.60;41.30
9446;DHT22;4761;49.490;10.908;2023-04-03T03:34:35;17.60;41.30
9446;DHT22;4761;49.490;10.908;2023-04-03T03:37:01;17.60;41.40
9446;DHT22;4761;49.490;10.908;2023-04-03T03:39:27;17.60;41.50
9446;DHT22;4761;49.490;10.908;2023-04-03T03:41:53;17.60;41.60
9446;DHT22;4761;49.490;10.908;2023-04-03T03:44:19;17.60;41.70
9446;DHT22;4761;49.490;10.908;2023-04-03T03:46:45;17.60;41.70
9446;DHT22;4761;49.490;10.908;2023-04-03T03:49:11;17.60;41.70
9446;DHT22;4761;49.490;10.908;2023-04-03T03:51:37;17.60;41.70
9446;DHT22;4761;49.490;10.908;2023-04-03T03:54:03;17.60;41.70
9446;DHT22;4761;49.490;10.908;2023-04-03T03:56:29;17.60;41.70
9446;DHT22;4761;49.490;10.908;2023-04-03T03:58:55;17.60;42.40
9446;DHT22;4761;49.490;10.908;2023-04-03T04:01:22;17.50;41.70
9446;DHT22;4761;49.490;10.908;2023-04-03T04:03:47;17.50;41.70
9446;DHT22;4761;49.490;10.908;2023-04-03T04:06:13;17.50;41.70
9446;DHT22;4761;49.490;10.908;2023-04-03T04:08:39;17.50;41.70
9446;DHT22;4761;49.490;10.908;2023-04-03T04:11:04;17.50;41.70
9446;DHT22;4761;49.490;10.908;2023-04-03T04:13:30;17.50;41.70
9446;DHT22;4761;49.490;10.908;2023-04-03T04:15:55;17.50;41.70
9446;DHT22;4761;49.490;10.908;2023-04-03T04:18:21;17.50;41.70
9446;DHT22;4761;49.490;10.908;2023-04-03T04:20:48;17.50;41.70
9446;DHT22;4761;49.490;10.908;2023-04-03T04:23:13;17.50;41.70
9446;DHT22;4761;49.490;10.908;2023-04-03T04:25:40;17.50;41.70
9446;DHT22;4761;49.490;10.908;2023-04-03T04:28:05;17.50;41.70
9446;DHT22;4761;49.490;10.908;2023-04-03T04:30:31;17.50;41.70
9446;DHT22;4761;49.490;10.908;2023-04-03T04:32:57;17.50;41.70
9446;DHT22;4761;49.490;10.908;2023-04-03T04:35:22;17.50;41.70
9446;DHT22;4761;49.490;10.908;2023-04-03T04:37:48;17.50;41.70
9446;DHT22;4761;49.490;10.908;2023-04-03T04:40:13;17.50;41.70
9446;DHT22;4761;49.490;10.908;2023-04-03T04:42:39;17.50;41.70
9446;DHT22;4761;49.490;10.908;2023-04-03T04:45:05;17.50;41.80
9446;DHT22;4761;49.490;10.908;2023-04-03T04:47:30;17.50;41.80
9446;DHT22;4761;49.490;10.908;2023-04-03T04:49:56;17.50;41.80
9446;DHT22;4761;49.490;10.908;2023-04-03T04:52:21;17.50;41.70
9446;DHT22;4761;49.490;10.908;2023-04-03T04:54:47;17.50;41.70
9446;DHT22;4761;49.490;10.908;2023-04-03T04:57:13;17.50;41.70
9446;DHT22;4761;49.490;10.908;2023-04-03T04:59:38;17.50;41.70
9446;DHT22;4761;49.490;10.908;2023-04-03T05:02:04;17.50;41.70
9446;DHT22;4761;49.490;10.908;2023-04-03T05:04:30;17.50;41.80
9446;DHT22;4761;49.490;10.908;2023-04-03T05:06:55;17.40;41.60
9446;DHT22;4761;49.490;10.908;2023-04-03T05:09:21;17.50;41.70
9446;DHT22;4761;49.490;10.908;2023-04-03T05:11:47;17.50;41.70
9446;DHT22;4761;49.490;10.908;2023-04-03T05:14:13;17.50;41.70
9446;DHT22;4761;49.490;10.908;2023-04-03T05:16:38;17.40;41.70
9446;DHT22;4761;49.490;10.908;2023-04-03T05:19:04;17.40;41.70
9446;DHT22;4761;49.490;10.908;2023-04-03T05:21:30;17.40;41.70
9446;DHT22;4761;49.490;10.908;2023-04-03T05:24:01;17.40;41.80
9446;DHT22;4761;49.490;10.908;2023-04-03T05:26:29;17.40;41.80
9446;DHT22;4761;49.490;10.908;2023-04-03T05:28:55;17.40;41.90
9446;DHT22;4761;49.490;10.908;2023-04-03T05:31:21;17.40;41.80
9446;DHT22;4761;49.490;10.908;2023-04-03T05:33:46;17.40;41.80
9446;DHT22;4761;49.490;10.908;2023-04-03T05:36:12;17.40;39.20
9446;DHT22;4761;49.490;10.908;2023-04-03T05:38:38;17.20;35.00
9446;DHT22;4761;49.490;10.908;2023-04-03T05:41:04;17.20;34.20
9446;DHT22;4761;49.490;10.908;2023-04-03T05:43:30;17.10;34.00
9446;DHT22;4761;49.490;10.908;2023-04-03T05:45:55;17.10;34.00
9446;DHT22;4761;49.490;10.908;2023-04-03T05:48:21;17.20;34.00
9446;DHT22;4761;49.490;10.908;2023-04-03T05:50:47;17.20;33.80
9446;DHT22;4761;49.490;10.908;2023-04-03T05:53:32;17.30;33.50
9446;DHT22;4761;49.490;10.908;2023-04-03T05:55:58;17.40;33.30
9446;DHT22;4761;49.490;10.908;2023-04-03T05:58:23;17.40;32.90
9446;DHT22;4761;49.490;10.908;2023-04-03T06:00:49;17.50;32.60
9446;DHT22;4761;49.490;10.908;2023-04-03T06:03:15;17.60;32.30
9446;DHT22;4761;49.490;10.908;2023-04-03T06:05:41;17.60;32.00
9446;DHT22;4761;49.490;10.908;2023-04-03T06:08:07;17.70;31.80
9446;DHT22;4761;49.490;10.908;2023-04-03T06:10:32;17.80;31.70
9446;DHT22;4761;49.490;10.908;2023-04-03T06:12:58;17.80;31.40
9446;DHT22;4761;49.490;10.908;2023-04-03T06:15:23;17.90;31.30
9446;DHT22;4761;49.490;10.908;2023-04-03T06:17:50;17.90;31.20
9446;DHT22;4761;49.490;10.908;2023-04-03T06:20:15;18.00;31.10
9446;DHT22;4761;49.490;10.908;2023-04-03T06:22:41;18.00;30.90
9446;DHT22;4761;49.490;10.908;2023-04-03T06:25:07;18.10;30.80
9446;DHT22;4761;49.490;10.908;2023-04-03T06:27:33;18.10;30.60
9446;DHT22;4761;49.490;10.908;2023-04-03T06:29:58;18.10;30.50
9446;DHT22;4761;49.490;10.908;2023-04-03T06:32:24;18.20;30.40
9446;DHT22;4761;49.490;10.908;2023-04-03T06:34:50;18.20;30.30
9446;DHT22;4761;49.490;10.908;2023-04-03T06:37:21;18.20;30.10
9446;DHT22;4761;49.490;10.908;2023-04-03T06:39:48;18.30;30.10
9446;DHT22;4761;49.490;10.908;2023-04-03T06:42:14;18.30;30.10
9446;DHT22;4761;49.490;10.908;2023-04-03T06:44:40;18.30;30.10
9446;DHT22;4761;49.490;10.908;2023-04-03T06:47:05;18.30;30.10
9446;DHT22;4761;49.490;10.908;2023-04-03T06:49:31;18.30;30.00
9446;DHT22;4761;49.490;10.908;2023-04-03T06:51:57;18.30;30.00
9446;DHT22;4761;49.490;10.908;2023-04-03T06:54:23;18.30;29.90
9446;DHT22;4761;49.490;10.908;2023-04-03T06:56:49;18.40;29.90
9446;DHT22;4761;49.490;10.908;2023-04-03T06:59:15;18.40;29.90
9446;DHT22;4761;49.490;10.908;2023-04-03T07:01:41;18.40;29.80
9446;DHT22;4761;49.490;10.908;2023-04-03T07:04:07;18.40;29.70
9446;DHT22;4761;49.490;10.908;2023-04-03T07:06:33;18.40;29.60
9446;DHT22;4761;49.490;10.908;2023-04-03T07:08:59;18.50;29.10
9446;DHT22;4761;49.490;10.908;2023-04-03T07:11:25;18.50;29.10
9446;DHT22;4761;49.490;10.908;2023-04-03T07:13:51;18.50;29.00
9446;DHT22;4761;49.490;10.908;2023-04-03T07:16:18;18.50;28.90
9446;DHT22;4761;49.490;10.908;2023-04-03T07:18:44;18.50;28.80
9446;DHT22;4761;49.490;10.908;2023-04-03T07:21:10;18.50;28.60
9446;DHT22;4761;49.490;10.908;2023-04-03T07:23:35;18.60;28.60
9446;DHT22;4761;49.490;10.908;2023-04-03T07:26:01;18.60;28.50
9446;DHT22;4761;49.490;10.908;2023-04-03T07:28:27;18.60;28.50
9446;DHT22;4761;49.490;10.908;2023-04-03T07:31:02;18.50;28.40
9446;DHT22;4761;49.490;10.908;2023-04-03T07:33:28;18.50;28.40
9446;DHT22;4761;49.490;10.908;2023-04-03T07:35:54;18.50;28.40
9446;DHT22;4761;49.490;10.908;2023-04-03T07:38:20;18.50;28.40
9446;DHT22;4761;49.490;10.908;2023-04-03T07:40:47;18.50;28.40
9446;DHT22;4761;49.490;10.908;2023-04-03T07:43:13;18.50;28.40
9446;DHT22;4761;49.490;10.908;2023-04-03T07:45:39;18.50;28.30
9446;DHT22;4761;49.490;10.908;2023-04-03T07:48:04;18.50;28.30
9446;DHT22;4761;49.490;10.908;2023-04-03T07:50:30;18.60;28.30
9446;DHT22;4761;49.490;10.908;2023-04-03T07:52:57;18.60;28.20
9446;DHT22;4761;49.490;10.908;2023-04-03T07:55:23;18.60;28.10
9446;DHT22;4761;49.490;10.908;2023-04-03T07:57:49;18.60;28.00
9446;DHT22;4761;49.490;10.908;2023-04-03T08:00:15;18.60;27.80
9446;DHT22;4761;49.490;10.908;2023-04-03T08:02:43;18.60;28.00
9446;DHT22;4761;49.490;10.908;2023-04-03T08:05:10;18.70;37.60
9446;DHT22;4761;49.490;10.908;2023-04-03T08:07:37;18.70;37.60
9446;DHT22;4761;49.490;10.908;2023-04-03T08:10:03;18.70;37.90
9446;DHT22;4761;49.490;10.908;2023-04-03T08:12:29;18.60;38.10
9446;DHT22;4761;49.490;10.908;2023-04-03T08:14:55;18.50;38.40
9446;DHT22;4761;49.490;10.908;2023-04-03T08:17:21;18.40;38.70
9446;DHT22;4761;49.490;10.908;2023-04-03T08:19:46;18.30;39.00
9446;DHT22;4761;49.490;10.908;2023-04-03T08:22:12;18.20;39.20
9446;DHT22;4761;49.490;10.908;2023-04-03T08:24:37;18.10;39.20
9446;DHT22;4761;49.490;10.908;2023-04-03T08:27:03;18.00;39.30
9446;DHT22;4761;49.490;10.908;2023-04-03T08:29:29;18.00;39.50
9446;DHT22;4761;49.490;10.908;2023-04-03T08:31:55;17.90;39.50
9446;DHT22;4761;49.490;10.908;2023-04-03T08:34:20;17.90;39.60
9446;DHT22;4761;49.490;10.908;2023-04-03T08:36:46;17.80;39.70
9446;DHT22;4761;49.490;10.908;2023-04-03T08:39:12;17.80;39.70
9446;DHT22;4761;49.490;10.908;2023-04-03T08:41:39;17.80;39.70
9446;DHT22;4761;49.490;10.908;2023-04-03T08:49:25;17.70;40.10
9446;DHT22;4761;49.490;10.908;2023-04-03T08:51:52;17.60;41.20
9446;DHT22;4761;49.490;10.908;2023-04-03T08:54:34;17.70;42.70
9446;DHT22;4761;49.490;10.908;2023-04-03T08:57:03;17.60;43.40
9446;DHT22;4761;49.490;10.908;2023-04-03T08:59:34;17.60;45.40
9446;DHT22;4761;49.490;10.908;2023-04-03T09:02:04;17.60;45.10
9446;DHT22;4761;49.490;10.908;2023-04-03T09:04:38;17.70;45.30
9446;DHT22;4761;49.490;10.908;2023-04-03T09:07:10;17.70;44.90
9446;DHT22;4761;49.490;10.908;2023-04-03T09:09:41;17.70;44.60
9446;DHT22;4761;49.490;10.908;2023-04-03T09:22:44;17.80;43.80
9446;DHT22;4761;49.490;10.908;2023-04-03T09:25:20;17.80;43.60
9446;DHT22;4761;49.490;10.908;2023-04-03T09:27:47;17.80;43.50
9446;DHT22;4761;49.490;10.908;2023-04-03T09:30:21;17.80;43.30
9446;DHT22;4761;49.490;10.908;2023-04-03T09:32:50;17.80;43.20
9446;DHT22;4761;49.490;10.908;2023-04-03T09:35:23;17.80;43.10
9446;DHT22;4761;49.490;10.908;2023-04-03T09:37:54;17.80;43.00
9446;DHT22;4761;49.490;10.908;2023-04-03T09:40:34;17.80;42.90
9446;DHT22;4761;49.490;10.908;2023-04-03T09:43:24;17.80;42.80
9446;DHT22;4761;49.490;10.908;2023-04-03T09:45:50;17.80;42.60
9446;DHT22;4761;49.490;10.908;2023-04-03T09:48:20;17.80;42.60
9446;DHT22;4761;49.490;10.908;2023-04-03T09:50:56;17.80;42.60
9446;DHT22;4761;49.490;10.908;2023-04-03T09:56:04;17.80;42.40
9446;DHT22;4761;49.490;10.908;2023-04-03T09:58:40;17.90;42.30
9446;DHT22;4761;49.490;10.908;2023-04-03T10:01:30;17.90;42.20
9446;DHT22;4761;49.490;10.908;2023-04-03T10:04:18;17.90;42.10
9446;DHT22;4761;49.490;10.908;2023-04-03T10:06:49;17.90;42.10
9446;DHT22;4761;49.490;10.908;2023-04-03T10:09:25;17.90;42.10
9446;DHT22;4761;49.490;10.908;2023-04-03T10:12:11;17.90;42.00
9446;DHT22;4761;49.490;10.908;2023-04-03T10:14:39;17.90;42.10
9446;DHT22;4761;49.490;10.908;2023-04-03T10:20:06;17.90;42.00
9446;DHT22;4761;49.490;10.908;2023-04-03T10:22:46;17.90;42.00
9446;DHT22;4761;49.490;10.908;2023-04-03T10:25:33;17.90;42.00
9446;DHT22;4761;49.490;10.908;2023-04-03T10:28:09;17.90;42.10
9446;DHT22;4761;49.490;10.908;2023-04-03T10:41:59;18.00;42.10
9446;DHT22;4761;49.490;10.908;2023-04-03T10:47:27;18.00;42.10
9446;DHT22;4761;49.490;10.908;2023-04-03T10:50:15;18.00;42.10
9446;DHT22;4761;49.490;10.908;2023-04-03T10:52:57;17.90;41.90
9446;DHT22;4761;49.490;10.908;2023-04-03T10:55:53;17.90;41.80
9446;DHT22;4761;49.490;10.908;2023-04-03T10:58:30;17.90;41.60
9446;DHT22;4761;49.490;10.908;2023-04-03T11:01:02;17.90;41.60
9446;DHT22;4761;49.490;10.908;2023-04-03T11:03:34;17.90;41.60
9446;DHT22;4761;49.490;10.908;2023-04-03T11:06:02;17.90;41.70
9446;DHT22;4761;49.490;10.908;2023-04-03T11:09:02;17.90;41.70
9446;DHT22;4761;49.490;10.908;2023-04-03T11:11:39;17.80;41.60
9446;DHT22;4761;49.490;10.908;2023-04-03T11:14:30;17.90;41.70
9446;DHT22;4761;49.490;10.908;2023-04-03T11:20:13;17.80;41.30
9446;DHT22;4761;49.490;10.908;2023-04-03T11:25:30;17.80;41.20
9446;DHT22;4761;49.490;10.908;2023-04-03T11:28:03;17.80;41.00
9446;DHT22;4761;49.490;10.908;2023-04-03T11:36:21;17.80;40.70
9446;DHT22;4761;49.490;10.908;2023-04-03T11:38:49;17.90;40.70
9446;DHT22;4761;49.490;10.908;2023-04-03T11:41:16;17.80;41.20
9446;DHT22;4761;49.490;10.908;2023-04-03T11:43:59;17.90;40.50
9446;DHT22;4761;49.490;10.908;2023-04-03T12:03:31;17.90;40.20
9446;DHT22;4761;49.490;10.908;2023-04-03T12:16:42;17.90;39.60
9446;DHT22;4761;49.490;10.908;2023-04-03T12:26:46;18.10;39.60
9446;DHT22;4761;49.490;10.908;2023-04-03T12:29:34;18.10;40.00
9446;DHT22;4761;49.490;10.908;2023-04-03T12:32:19;18.10;42.00
9446;DHT22;4761;49.490;10.908;2023-04-03T12:35:10;18.10;41.70
9446;DHT22;4761;49.490;10.908;2023-04-03T12:46:28;18.10;42.00
9446;DHT22;4761;49.490;10.908;2023-04-03T12:48:59;18.10;42.20
9446;DHT22;4761;49.490;10.908;2023-04-03T12:51:29;18.10;42.20
9446;DHT22;4761;49.490;10.908;2023-04-03T12:56:38;18.10;43.10
9446;DHT22;4761;49.490;10.908;2023-04-03T12:59:23;18.10;42.50
9446;DHT22;4761;49.490;10.908;2023-04-03T13:02:00;18.10;42.80
9446;DHT22;4761;49.490;10.908;2023-04-03T13:04:31;18.10;42.90
9446;DHT22;4761;49.490;10.908;2023-04-03T13:06:57;18.10;43.10
9446;DHT22;4761;49.490;10.908;2023-04-03T13:09:28;18.20;43.20
9446;DHT22;4761;49.490;10.908;2023-04-03T13:12:03;18.30;43.10
9446;DHT22;4761;49.490;10.908;2023-04-03T13:14:35;18.50;43.20
9446;DHT22;4761;49.490;10.908;2023-04-03T13:17:12;18.50;43.30
9446;DHT22;4761;49.490;10.908;2023-04-03T13:19:38;18.70;43.40
9446;DHT22;4761;49.490;10.908;2023-04-03T13:24:52;18.80;43.50
9446;DHT22;4761;49.490;10.908;2023-04-03T13:27:18;18.90;43.70
9446;DHT22;4761;49.490;10.908;2023-04-03T13:29:50;18.90;43.80
9446;DHT22;4761;49.490;10.908;2023-04-03T13:32:21;19.00;43.90
9446;DHT22;4761;49.490;10.908;2023-04-03T13:34:48;19.00;43.90
9446;DHT22;4761;49.490;10.908;2023-04-03T13:37:29;19.10;44.00
9446;DHT22;4761;49.490;10.908;2023-04-03T13:42:35;19.20;43.90
9446;DHT22;4761;49.490;10.908;2023-04-03T13:45:26;19.20;44.00
9446;DHT22;4761;49.490;10.908;2023-04-03T13:48:18;19.20;44.00
9446;DHT22;4761;49.490;10.908;2023-04-03T13:51:03;19.30;44.10
9446;DHT22;4761;49.490;10.908;2023-04-03T13:53:31;19.30;44.30
9446;DHT22;4761;49.490;10.908;2023-04-03T13:58:29;19.30;44.70
9446;DHT22;4761;49.490;10.908;2023-04-03T14:01:17;19.30;44.80
9446;DHT22;4761;49.490;10.908;2023-04-03T14:06:17;19.40;44.90
9446;DHT22;4761;49.490;10.908;2023-04-03T14:08:44;19.40;44.90
9446;DHT22;4761;49.490;10.908;2023-04-03T14:11:15;19.40;44.80
9446;DHT22;4761;49.490;10.908;2023-04-03T14:13:42;19.50;44.80
9446;DHT22;4761;49.490;10.908;2023-04-03T14:16:15;19.50;44.90
9446;DHT22;4761;49.490;10.908;2023-04-03T14:18:43;19.50;44.80
9446;DHT22;4761;49.490;10.908;2023-04-03T14:21:11;19.50;44.60
9446;DHT22;4761;49.490;10.908;2023-04-03T14:23:37;19.40;44.80
9446;DHT22;4761;49.490;10.908;2023-04-03T14:26:04;19.20;44.80
9446;DHT22;4761;49.490;10.908;2023-04-03T14:28:31;19.10;44.90
9446;DHT22;4761;49.490;10.908;2023-04-03T14:30:57;19.00;45.00
9446;DHT22;4761;49.490;10.908;2023-04-03T14:33:23;18.90;44.90
9446;DHT22;4761;49.490;10.908;2023-04-03T14:35:49;18.90;45.00
9446;DHT22;4761;49.490;10.908;2023-04-03T14:38:28;18.80;45.00
9446;DHT22;4761;49.490;10.908;2023-04-03T14:40:54;18.80;45.00
9446;DHT22;4761;49.490;10.908;2023-04-03T14:43:20;18.80;44.80
9446;DHT22;4761;49.490;10.908;2023-04-03T14:45:47;18.70;44.70
9446;DHT22;4761;49.490;10.908;2023-04-03T14:48:19;18.70;44.60
9446;DHT22;4761;49.490;10.908;2023-04-03T14:50:45;18.70;44.60
9446;DHT22;4761;49.490;10.908;2023-04-03T14:53:13;18.70;44.40
9446;DHT22;4761;49.490;10.908;2023-04-03T14:55:44;18.70;44.30
9446;DHT22;4761;49.490;10.908;2023-04-03T14:58:15;18.60;44.20
9446;DHT22;4761;49.490;10.908;2023-04-03T15:00:40;18.60;44.10
9446;DHT22;4761;49.490;10.908;2023-04-03T15:03:08;18.60;44.10
9446;DHT22;4761;49.490;10.908;2023-04-03T15:05:35;18.60;44.00
9446;DHT22;4761;49.490;10.908;2023-04-03T15:08:01;18.50;43.80
9446;DHT22;4761;49.490;10.908;2023-04-03T15:10:28;18.50;43.70
9446;DHT22;4761;49.490;10.908;2023-04-03T15:12:55;18.50;43.70
9446;DHT22;4761;49.490;10.908;2023-04-03T15:15:22;18.50;43.60
9446;DHT22;4761;49.490;10.908;2023-04-03T15:17:54;18.50;43.40
9446;DHT22;4761;49.490;10.908;2023-04-03T15:20:22;18.50;43.40
9446;DHT22;4761;49.490;10.908;2023-04-03T15:22:48;18.40;43.30
9446;DHT22;4761;49.490;10.908;2023-04-03T15:25:14;18.40;43.20
9446;DHT22;4761;49.490;10.908;2023-04-03T15:27:39;18.40;43.10
9446;DHT22;4761;49.490;10.908;2023-04-03T15:30:15;18.40;43.00
9446;DHT22;4761;49.490;10.908;2023-04-03T15:32:41;18.40;42.90
9446;DHT22;4761;49.490;10.908;2023-04-03T15:35:07;18.40;42.80
9446;DHT22;4761;49.490;10.908;2023-04-03T15:37:32;18.40;42.70
9446;DHT22;4761;49.490;10.908;2023-04-03T15:39:58;18.40;42.70
9446;DHT22;4761;49.490;10.908;2023-04-03T15:42:24;18.30;42.50
9446;DHT22;4761;49.490;10.908;2023-04-03T15:44:49;18.30;42.50
9446;DHT22;4761;49.490;10.908;2023-04-03T15:47:15;18.30;42.40
9446;DHT22;4761;49.490;10.908;2023-04-03T15:49:40;18.30;43.10
9446;DHT22;4761;49.490;10.908;2023-04-03T15:52:06;18.30;42.90
9446;DHT22;4761;49.490;10.908;2023-04-03T15:54:32;18.30;42.70
9446;DHT22;4761;49.490;10.908;2023-04-03T15:56:57;18.30;42.60
9446;DHT22;4761;49.490;10.908;2023-04-03T15:59:23;18.30;42.50
9446;DHT22;4761;49.490;10.908;2023-04-03T16:01:49;18.30;42.40
9446;DHT22;4761;49.490;10.908;2023-04-03T16:04:16;18.30;42.40
9446;DHT22;4761;49.490;10.908;2023-04-03T16:06:42;18.30;42.40
9446;DHT22;4761;49.490;10.908;2023-04-03T16:09:08;18.20;42.30
9446;DHT22;4761;49.490;10.908;2023-04-03T16:11:34;18.20;42.30
9446;DHT22;4761;49.490;10.908;2023-04-03T16:14:01;18.20;42.20
9446;DHT22;4761;49.490;10.908;2023-04-03T16:16:27;18.20;42.20
9446;DHT22;4761;49.490;10.908;2023-04-03T16:18:54;18.20;42.20
9446;DHT22;4761;49.490;10.908;2023-04-03T16:21:20;18.20;42.10
9446;DHT22;4761;49.490;10.908;2023-04-03T16:23:46;18.20;42.00
9446;DHT22;4761;49.490;10.908;2023-04-03T16:26:11;18.10;41.80
9446;DHT22;4761;49.490;10.908;2023-04-03T16:28:37;18.10;41.90
9446;DHT22;4761;49.490;10.908;2023-04-03T16:31:03;18.10;41.80
9446;DHT22;4761;49.490;10.908;2023-04-03T16:33:30;18.10;41.80
9446;DHT22;4761;49.490;10.908;2023-04-03T16:35:56;18.10;41.70
9446;DHT22;4761;49.490;10.908;2023-04-03T16:38:21;18.10;41.70
9446;DHT22;4761;49.490;10.908;2023-04-03T16:40:48;18.10;41.50
9446;DHT22;4761;49.490;10.908;2023-04-03T16:43:15;18.10;41.50
9446;DHT22;4761;49.490;10.908;2023-04-03T16:45:41;18.00;41.40
9446;DHT22;4761;49.490;10.908;2023-04-03T16:48:07;18.10;41.40
9446;DHT22;4761;49.490;10.908;2023-04-03T16:50:33;18.00;41.30
9446;DHT22;4761;49.490;10.908;2023-04-03T16:52:58;18.00;41.30
9446;DHT22;4761;49.490;10.908;2023-04-03T16:55:24;18.00;41.30
9446;DHT22;4761;49.490;10.908;2023-04-03T16:57:50;18.00;41.20
9446;DHT22;4761;49.490;10.908;2023-04-03T17:00:16;18.00;41.10
9446;DHT22;4761;49.490;10.908;2023-04-03T17:02:41;18.00;41.20
9446;DHT22;4761;49.490;10.908;2023-04-03T17:05:07;18.00;41.10
9446;DHT22;4761;49.490;10.908;2023-04-03T17:07:33;18.00;41.00
9446;DHT22;4761;49.490;10.908;2023-04-03T17:09:58;18.00;40.90
9446;DHT22;4761;49.490;10.908;2023-04-03T17:12:24;18.00;40.70
9446;DHT22;4761;49.490;10.908;2023-04-03T17:14:50;18.10;40.60
9446;DHT22;4761;49.490;10.908;2023-04-03T17:17:20;18.10;40.50
9446;DHT22;4761;49.490;10.908;2023-04-03T17:19:46;18.10;40.50
9446;DHT22;4761;49.490;10.908;2023-04-03T17:22:12;18.10;40.40
9446;DHT22;4761;49.490;10.908;2023-04-03T17:24:38;18.10;40.30
9446;DHT22;4761;49.490;10.908;2023-04-03T17:27:03;18.10;40.30
9446;DHT22;4761;49.490;10.908;2023-04-03T17:29:29;18.10;40.30
9446;DHT22;4761;49.490;10.908;2023-04-03T17:31:55;18.10;40.30
9446;DHT22;4761;49.490;10.908;2023-04-03T17:34:21;18.10;40.30
9446;DHT22;4761;49.490;10.908;2023-04-03T17:36:46;18.00;40.30
9446;DHT22;4761;49.490;10.908;2023-04-03T17:39:12;18.00;40.30
9446;DHT22;4761;49.490;10.908;2023-04-03T17:41:38;18.00;40.30
9446;DHT22;4761;49.490;10.908;2023-04-03T17:44:04;17.90;40.20
9446;DHT22;4761;49.490;10.908;2023-04-03T17:46:30;17.90;40.20
9446;DHT22;4761;49.490;10.908;2023-04-03T17:48:56;17.90;40.20
9446;DHT22;4761;49.490;10.908;2023-04-03T17:51:24;17.90;40.30